sensor_id;sensor_type;location;lat;lon;timestamp;temperature;humidity
33831;DHT22;20137;48.834;8.732;2023-07-29T00:02:16;16.50;99.90
33831;DHT22;20137;48.834;8.732;2023-07-29T00:04:42;16.50;99.90
33831;DHT22;20137;48.834;8.732;2023-07-29T00:07:08;16.50;99.90
33831;DHT22;20137;48.834;8.732;2023-07-29T00:09:34;16.50;99.90
33831;DHT22;20137;48.834;8.732;2023-07-29T00:11:59;16.50;99.90
33831;DHT22;20137;48.834;8.732;2023-07-29T00:14:25;16.60;99.90
33831;DHT22;20137;48.834;8.732;2023-07-29T00:16:51;16.60;99.90
33831;DHT22;20137;48.834;8.732;2023-07-29T00:19:16;16.60;99.90
33831;DHT22;20137;48.834;8.732;2023-07-29T00:21:42;16.60;99.90
33831;DHT22;20137;48.834;8.732;2023-07-29T00:24:08;16.70;99.90
33831;DHT22;20137;48.834;8.732;2023-07-29T00:26:34;16.70;99.90
33831;DHT22;20137;48.834;8.732;2023-07-29T00:29:00;16.70;99.90
33831;DHT22;20137;48.834;8.732;2023-07-29T00:31:26;16.70;99.90
33831;DHT22;20137;48.834;8.732;2023-07-29T00:33:52;16.70;99.90
33831;DHT22;20137;48.834;8.732;2023-07-29T00:36:18;16.80;99.90
33831;DHT22;20137;48.834;8.732;2023-07-29T00:38:44;16.80;99.90
33831;DHT22;20137;48.834;8.732;2023-07-29T00:41:10;16.80;99.90
33831;DHT22;20137;48.834;8.732;2023-07-29T00:43:38;16.70;99.90
33831;DHT22;20137;48.834;8.732;2023-07-29T00:46:04;16.80;99.90
33831;DHT22;20137;48.834;8.732;2023-07-29T00:48:31;16.80;99.90
33831;DHT22;20137;48.834;8.732;2023-07-29T00:50:57;17.00;99.90
33831;DHT22;20137;48.834;8.732;2023-07-29T00:53:22;16.90;99.90
33831;DHT22;20137;48.834;8.732;2023-07-29T00:55:48;16.90;99.90
33831;DHT22;20137;48.834;8.732;2023-07-29T00:58:14;17.00;99.90
33831;DHT22;20137;48.834;8.732;2023-07-29T01:00:40;17.00;99.90
33831;DHT22;20137;48.834;8.732;2023-07-29T01:03:06;17.00;99.90
33831;DHT22;20137;48.834;8.732;2023-07-29T01:08:31;17.00;99.90
33831;DHT22;20137;48.834;8.732;2023-07-29T01:11:04;17.00;99.90
33831;DHT22;20137;48.834;8.732;2023-07-29T01:16:04;16.90;99.90
33831;DHT22;20137;48.834;8.732;2023-07-29T01:18:36;16.90;99.90
33831;DHT22;20137;48.834;8.732;2023-07-29T01:21:04;16.80;99.90
33831;DHT22;20137;48.834;8.732;2023-07-29T01:23:34;16.70;99.90
33831;DHT22;20137;48.834;8.732;2023-07-29T01:26:01;16.70;99.90
33831;DHT22;20137;48.834;8.732;2023-07-29T01:28:27;16.70;99.90
33831;DHT22;20137;48.834;8.732;2023-07-29T01:33:27;16.70;99.90
33831;DHT22;20137;48.834;8.732;2023-07-29T01:36:02;16.70;99.90
33831;DHT22;20137;48.834;8.732;2023-07-29T01:38:31;16.60;99.90
33831;DHT22;20137;48.834;8.732;2023-07-29T01:41:04;16.60;99.90
33831;DHT22;20137;48.834;8.732;2023-07-29T01:43:31;16.50;99.90
33831;DHT22;20137;48.834;8.732;2023-07-29T01:45:58;16.50;99.90
33831;DHT22;20137;48.834;8.732;2023-07-29T01:48:24;16.40;99.90
33831;DHT22;20137;48.834;8.732;2023-07-29T01:50:50;16.40;99.90
33831;DHT22;20137;48.834;8.732;2023-07-29T01:53:16;16.30;99.90
33831;DHT22;20137;48.834;8.732;2023-07-29T01:55:43;16.20;99.90
33831;DHT22;20137;48.834;8.732;2023-07-29T01:58:10;16.20;99.90
33831;DHT22;20137;48.834;8.732;2023-07-29T02:00:36;16.10;99.90
33831;DHT22;20137;48.834;8.732;2023-07-29T02:03:02;16.10;99.90
33831;DHT22;20137;48.834;8.732;2023-07-29T02:05:28;16.10;99.90
33831;DHT22;20137;48.834;8.732;2023-07-29T02:07:54;16.10;99.90
33831;DHT22;20137;48.834;8.732;2023-07-29T02:10:19;16.00;99.90
33831;DHT22;20137;48.834;8.732;2023-07-29T02:12:45;16.00;99.90
33831;DHT22;20137;48.834;8.732;2023-07-29T02:15:11;16.00;99.90
33831;DHT22;20137;48.834;8.732;2023-07-29T02:17:37;15.90;99.90
33831;DHT22;20137;48.834;8.732;2023-07-29T02:20:03;15.90;99.90
33831;DHT22;20137;48.834;8.732;2023-07-29T02:22:29;15.90;99.90
33831;DHT22;20137;48.834;8.732;2023-07-29T02:24:55;15.90;99.90
33831;DHT22;20137;48.834;8.732;2023-07-29T02:27:21;15.90;99.90
33831;DHT22;20137;48.834;8.732;2023-07-29T02:29:46;15.90;99.90
33831;DHT22;20137;48.834;8.732;2023-07-29T02:32:12;15.90;99.90
33831;DHT22;20137;48.834;8.732;2023-07-29T02:34:38;15.90;99.90
33831;DHT22;20137;48.834;8.732;2023-07-29T02:37:04;15.90;99.90
33831;DHT22;20137;48.834;8.732;2023-07-29T02:39:30;16.00;99.90
33831;DHT22;20137;48.834;8.732;2023-07-29T02:41:56;16.00;99.90
33831;DHT22;20137;48.834;8.732;2023-07-29T02:44:23;16.10;99.90
33831;DHT22;20137;48.834;8.732;2023-07-29T02:46:49;16.10;99.90
33831;DHT22;20137;48.834;8.732;2023-07-29T02:49:15;16.20;99.90
33831;DHT22;20137;48.834;8.732;2023-07-29T02:51:41;16.20;99.90
33831;DHT22;20137;48.834;8.732;2023-07-29T02:54:06;16.20;99.90
33831;DHT22;20137;48.834;8.732;2023-07-29T02:56:32;16.20;99.90
33831;DHT22;20137;48.834;8.732;2023-07-29T02:58:58;16.20;99.90
33831;DHT22;20137;48.834;8.732;2023-07-29T03:01:23;16.30;99.90
33831;DHT22;20137;48.834;8.732;2023-07-29T03:03:52;16.30;99.90
33831;DHT22;20137;48.834;8.732;2023-07-29T03:06:18;16.40;99.90
33831;DHT22;20137;48.834;8.732;2023-07-29T03:08:44;16.40;99.90
33831;DHT22;20137;48.834;8.732;2023-07-29T03:11:14;16.40;99.90
33831;DHT22;20137;48.834;8.732;2023-07-29T03:13:40;16.40;99.90
33831;DHT22;20137;48.834;8.732;2023-07-29T03:16:13;16.50;99.90
33831;DHT22;20137;48.834;8.732;2023-07-29T03:18:42;16.50;99.90
33831;DHT22;20137;48.834;8.732;2023-07-29T03:21:09;16.50;99.90
33831;DHT22;20137;48.834;8.732;2023-07-29T03:23:35;16.50;99.90
33831;DHT22;20137;48.834;8.732;2023-07-29T03:26:03;16.60;99.90
33831;DHT22;20137;48.834;8.732;2023-07-29T03:28:36;16.60;99.90
33831;DHT22;20137;48.834;8.732;2023-07-29T03:31:02;16.60;99.90
33831;DHT22;20137;48.834;8.732;2023-07-29T03:33:28;16.70;99.90
33831;DHT22;20137;48.834;8.732;2023-07-29T03:35:54;16.70;99.90
33831;DHT22;20137;48.834;8.732;2023-07-29T03:38:20;16.80;99.90
33831;DHT22;20137;48.834;8.732;2023-07-29T03:40:46;16.80;99.90
33831;DHT22;20137;48.834;8.732;2023-07-29T03:43:12;16.90;99.90
33831;DHT22;20137;48.834;8.732;2023-07-29T03:45:39;16.90;99.90
33831;DHT22;20137;48.834;8.732;2023-07-29T03:48:05;16.90;99.90
33831;DHT22;20137;48.834;8.732;2023-07-29T03:50:33;16.90;99.90
33831;DHT22;20137;48.834;8.732;2023-07-29T03:53:00;16.90;99.90
33831;DHT22;20137;48.834;8.732;2023-07-29T03:55:26;16.90;99.90
33831;DHT22;20137;48.834;8.732;2023-07-29T03:57:52;16.80;99.90
33831;DHT22;20137;48.834;8.732;2023-07-29T04:00:17;16.80;99.90
33831;DHT22;20137;48.834;8.732;2023-07-29T04:02:44;16.80;99.90
33831;DHT22;20137;48.834;8.732;2023-07-29T04:05:11;16.80;99.90
33831;DHT22;20137;48.834;8.732;2023-07-29T04:07:36;16.80;99.90
33831;DHT22;20137;48.834;8.732;2023-07-29T04:10:03;16.70;99.90
33831;DHT22;20137;48.834;8.732;2023-07-29T04:12:30;16.70;99.90
33831;DHT22;20137;48.834;8.732;2023-07-29T04:14:55;16.70;99.90
33831;DHT22;20137;48.834;8.732;2023-07-29T04:17:21;16.70;99.90
33831;DHT22;20137;48.834;8.732;2023-07-29T04:19:47;16.70;99.90
33831;DHT22;20137;48.834;8.732;2023-07-29T04:22:13;16.70;99.90
33831;DHT22;20137;48.834;8.732;2023-07-29T04:24:39;16.60;99.90
33831;DHT22;20137;48.834;8.732;2023-07-29T04:27:05;16.60;99.90
33831;DHT22;20137;48.834;8.732;2023-07-29T04:29:31;16.60;99.90
33831;DHT22;20137;48.834;8.732;2023-07-29T04:31:57;16.60;99.90
33831;DHT22;20137;48.834;8.732;2023-07-29T04:34:22;16.60;99.90
33831;DHT22;20137;48.834;8.732;2023-07-29T04:36:48;16.60;99.90
33831;DHT22;20137;48.834;8.732;2023-07-29T04:39:14;16.60;99.90
33831;DHT22;20137;48.834;8.732;2023-07-29T04:41:40;16.60;99.90
33831;DHT22;20137;48.834;8.732;2023-07-29T04:44:06;16.70;99.90
33831;DHT22;20137;48.834;8.732;2023-07-29T04:46:32;16.70;99.90
33831;DHT22;20137;48.834;8.732;2023-07-29T04:48:58;16.70;99.90
33831;DHT22;20137;48.834;8.732;2023-07-29T04:51:24;16.80;99.90
33831;DHT22;20137;48.834;8.732;2023-07-29T04:53:50;16.80;99.90
33831;DHT22;20137;48.834;8.732;2023-07-29T04:56:16;16.90;99.90
33831;DHT22;20137;48.834;8.732;2023-07-29T04:58:42;16.90;99.90
33831;DHT22;20137;48.834;8.732;2023-07-29T05:01:07;17.00;99.90
33831;DHT22;20137;48.834;8.732;2023-07-29T05:03:33;17.10;99.90
33831;DHT22;20137;48.834;8.732;2023-07-29T05:05:59;17.10;99.90
33831;DHT22;20137;48.834;8.732;2023-07-29T05:08:28;17.20;99.90
33831;DHT22;20137;48.834;8.732;2023-07-29T05:10:54;17.30;99.90
33831;DHT22;20137;48.834;8.732;2023-07-29T05:13:20;17.40;99.90
33831;DHT22;20137;48.834;8.732;2023-07-29T05:15:47;17.50;99.90
33831;DHT22;20137;48.834;8.732;2023-07-29T05:18:13;17.50;99.90
33831;DHT22;20137;48.834;8.732;2023-07-29T05:20:39;17.50;99.90
33831;DHT22;20137;48.834;8.732;2023-07-29T05:23:04;17.60;99.90
33831;DHT22;20137;48.834;8.732;2023-07-29T05:25:30;17.60;99.90
33831;DHT22;20137;48.834;8.732;2023-07-29T05:27:56;17.70;99.90
33831;DHT22;20137;48.834;8.732;2023-07-29T05:30:22;17.70;99.90
33831;DHT22;20137;48.834;8.732;2023-07-29T05:32:48;17.80;99.90
33831;DHT22;20137;48.834;8.732;2023-07-29T05:35:14;18.00;99.90
33831;DHT22;20137;48.834;8.732;2023-07-29T05:37:40;18.10;99.90
33831;DHT22;20137;48.834;8.732;2023-07-29T05:40:07;18.30;99.90
33831;DHT22;20137;48.834;8.732;2023-07-29T05:42:36;18.50;99.90
33831;DHT22;20137;48.834;8.732;2023-07-29T05:45:02;18.50;99.90
33831;DHT22;20137;48.834;8.732;2023-07-29T05:47:28;18.60;99.90
33831;DHT22;20137;48.834;8.732;2023-07-29T05:49:53;18.70;99.90
33831;DHT22;20137;48.834;8.732;2023-07-29T05:52:20;18.80;99.90
33831;DHT22;20137;48.834;8.732;2023-07-29T05:54:45;18.90;99.90
33831;DHT22;20137;48.834;8.732;2023-07-29T05:57:12;18.80;99.90
33831;DHT22;20137;48.834;8.732;2023-07-29T05:59:38;18.80;99.90
33831;DHT22;20137;48.834;8.732;2023-07-29T06:02:04;18.80;99.90
33831;DHT22;20137;48.834;8.732;2023-07-29T06:04:30;18.80;99.90
33831;DHT22;20137;48.834;8.732;2023-07-29T06:06:56;18.80;99.90
33831;DHT22;20137;48.834;8.732;2023-07-29T06:09:22;18.80;99.90
33831;DHT22;20137;48.834;8.732;2023-07-29T06:11:48;18.70;99.90
33831;DHT22;20137;48.834;8.732;2023-07-29T06:14:14;18.70;99.90
33831;DHT22;20137;48.834;8.732;2023-07-29T06:16:39;18.60;99.90
33831;DHT22;20137;48.834;8.732;2023-07-29T06:19:05;18.50;99.90
33831;DHT22;20137;48.834;8.732;2023-07-29T06:21:31;18.50;99.90
33831;DHT22;20137;48.834;8.732;2023-07-29T06:23:57;18.50;99.90
33831;DHT22;20137;48.834;8.732;2023-07-29T06:26:22;18.40;99.90
33831;DHT22;20137;48.834;8.732;2023-07-29T06:28:48;18.40;99.90
33831;DHT22;20137;48.834;8.732;2023-07-29T06:31:14;18.30;99.90
33831;DHT22;20137;48.834;8.732;2023-07-29T06:33:40;18.30;99.90
33831;DHT22;20137;48.834;8.732;2023-07-29T06:36:05;18.30;99.90
33831;DHT22;20137;48.834;8.732;2023-07-29T06:38:31;18.30;99.90
33831;DHT22;20137;48.834;8.732;2023-07-29T06:40:57;18.30;99.90
33831;DHT22;20137;48.834;8.732;2023-07-29T06:43:23;18.20;99.90
33831;DHT22;20137;48.834;8.732;2023-07-29T06:45:49;18.20;99.90
33831;DHT22;20137;48.834;8.732;2023-07-29T06:48:14;18.20;99.90
33831;DHT22;20137;48.834;8.732;2023-07-29T06:50:40;18.20;99.90
33831;DHT22;20137;48.834;8.732;2023-07-29T06:53:06;18.20;99.90
33831;DHT22;20137;48.834;8.732;2023-07-29T06:55:32;18.30;99.90
33831;DHT22;20137;48.834;8.732;2023-07-29T06:57:57;18.30;99.90
33831;DHT22;20137;48.834;8.732;2023-07-29T07:00:23;18.30;99.90
33831;DHT22;20137;48.834;8.732;2023-07-29T07:02:49;18.40;99.90
33831;DHT22;20137;48.834;8.732;2023-07-29T07:05:15;18.50;99.90
33831;DHT22;20137;48.834;8.732;2023-07-29T07:07:40;18.60;99.90
33831;DHT22;20137;48.834;8.732;2023-07-29T07:10:06;18.80;99.90
33831;DHT22;20137;48.834;8.732;2023-07-29T07:12:32;18.90;99.90
33831;DHT22;20137;48.834;8.732;2023-07-29T07:14:59;18.90;99.90
33831;DHT22;20137;48.834;8.732;2023-07-29T07:17:25;19.00;99.90
33831;DHT22;20137;48.834;8.732;2023-07-29T07:19:51;18.90;99.90
33831;DHT22;20137;48.834;8.732;2023-07-29T07:22:17;18.90;99.90
33831;DHT22;20137;48.834;8.732;2023-07-29T07:24:44;18.90;99.90
33831;DHT22;20137;48.834;8.732;2023-07-29T07:27:10;19.00;99.90
33831;DHT22;20137;48.834;8.732;2023-07-29T07:29:36;19.10;99.90
33831;DHT22;20137;48.834;8.732;2023-07-29T07:32:02;19.20;99.90
33831;DHT22;20137;48.834;8.732;2023-07-29T07:34:28;19.30;99.90
33831;DHT22;20137;48.834;8.732;2023-07-29T07:36:53;19.40;99.90
33831;DHT22;20137;48.834;8.732;2023-07-29T07:39:19;19.70;99.90
33831;DHT22;20137;48.834;8.732;2023-07-29T07:41:45;20.10;99.90
33831;DHT22;20137;48.834;8.732;2023-07-29T07:44:11;20.60;99.90
33831;DHT22;20137;48.834;8.732;2023-07-29T07:46:41;21.10;99.90
33831;DHT22;20137;48.834;8.732;2023-07-29T07:49:06;21.60;99.90
33831;DHT22;20137;48.834;8.732;2023-07-29T07:51:32;22.10;99.90
33831;DHT22;20137;48.834;8.732;2023-07-29T07:53:58;22.20;99.90
33831;DHT22;20137;48.834;8.732;2023-07-29T07:56:24;22.50;99.90
33831;DHT22;20137;48.834;8.732;2023-07-29T07:58:50;22.80;99.90
33831;DHT22;20137;48.834;8.732;2023-07-29T08:01:16;22.80;99.90
33831;DHT22;20137;48.834;8.732;2023-07-29T08:03:42;22.60;99.90
33831;DHT22;20137;48.834;8.732;2023-07-29T08:06:08;22.20;99.90
33831;DHT22;20137;48.834;8.732;2023-07-29T08:08:33;21.90;99.90
33831;DHT22;20137;48.834;8.732;2023-07-29T08:10:59;21.60;99.90
33831;DHT22;20137;48.834;8.732;2023-07-29T08:13:25;21.40;99.90
33831;DHT22;20137;48.834;8.732;2023-07-29T08:15:51;21.30;99.90
33831;DHT22;20137;48.834;8.732;2023-07-29T08:18:17;21.20;99.90
33831;DHT22;20137;48.834;8.732;2023-07-29T08:20:54;21.30;99.90
33831;DHT22;20137;48.834;8.732;2023-07-29T08:23:21;21.20;99.90
33831;DHT22;20137;48.834;8.732;2023-07-29T08:25:55;21.20;99.90
33831;DHT22;20137;48.834;8.732;2023-07-29T08:28:22;21.30;99.90
33831;DHT22;20137;48.834;8.732;2023-07-29T08:30:48;21.40;99.90
33831;DHT22;20137;48.834;8.732;2023-07-29T08:33:15;21.40;99.90
33831;DHT22;20137;48.834;8.732;2023-07-29T08:35:40;21.60;99.90
33831;DHT22;20137;48.834;8.732;2023-07-29T08:38:07;21.80;99.90
33831;DHT22;20137;48.834;8.732;2023-07-29T08:40:34;21.90;99.90
33831;DHT22;20137;48.834;8.732;2023-07-29T08:43:04;22.10;99.90
33831;DHT22;20137;48.834;8.732;2023-07-29T08:45:35;22.20;99.90
33831;DHT22;20137;48.834;8.732;2023-07-29T08:48:03;22.10;99.90
33831;DHT22;20137;48.834;8.732;2023-07-29T08:50:32;22.30;99.90
33831;DHT22;20137;48.834;8.732;2023-07-29T08:52:59;22.40;99.90
33831;DHT22;20137;48.834;8.732;2023-07-29T08:55:26;22.30;99.90
33831;DHT22;20137;48.834;8.732;2023-07-29T08:57:52;22.70;99.90
33831;DHT22;20137;48.834;8.732;2023-07-29T09:00:19;23.10;99.90
33831;DHT22;20137;48.834;8.732;2023-07-29T09:02:45;23.50;99.90
33831;DHT22;20137;48.834;8.732;2023-07-29T09:05:10;23.80;99.90
33831;DHT22;20137;48.834;8.732;2023-07-29T09:07:36;24.10;99.90
33831;DHT22;20137;48.834;8.732;2023-07-29T09:10:02;24.20;99.90
33831;DHT22;20137;48.834;8.732;2023-07-29T09:12:32;24.10;99.90
33831;DHT22;20137;48.834;8.732;2023-07-29T09:14:58;23.90;99.90
33831;DHT22;20137;48.834;8.732;2023-07-29T09:17:23;23.70;99.90
33831;DHT22;20137;48.834;8.732;2023-07-29T09:19:50;23.50;99.90
33831;DHT22;20137;48.834;8.732;2023-07-29T09:22:22;23.20;99.90
33831;DHT22;20137;48.834;8.732;2023-07-29T09:24:48;22.70;99.90
33831;DHT22;20137;48.834;8.732;2023-07-29T09:27:27;22.30;99.90
33831;DHT22;20137;48.834;8.732;2023-07-29T09:29:53;21.70;99.90
33831;DHT22;20137;48.834;8.732;2023-07-29T09:32:24;21.30;99.90
33831;DHT22;20137;48.834;8.732;2023-07-29T09:34:50;21.10;99.90
33831;DHT22;20137;48.834;8.732;2023-07-29T09:37:25;20.90;99.90
33831;DHT22;20137;48.834;8.732;2023-07-29T09:39:51;20.50;99.90
33831;DHT22;20137;48.834;8.732;2023-07-29T09:42:22;20.00;99.90
33831;DHT22;20137;48.834;8.732;2023-07-29T09:44:51;19.70;99.90
33831;DHT22;20137;48.834;8.732;2023-07-29T09:47:25;19.40;99.90
33831;DHT22;20137;48.834;8.732;2023-07-29T09:49:51;19.40;99.90
33831;DHT22;20137;48.834;8.732;2023-07-29T09:52:19;19.40;99.90
33831;DHT22;20137;48.834;8.732;2023-07-29T09:54:46;19.50;99.90
33831;DHT22;20137;48.834;8.732;2023-07-29T09:57:14;19.70;99.90
33831;DHT22;20137;48.834;8.732;2023-07-29T09:59:39;19.80;99.90
33831;DHT22;20137;48.834;8.732;2023-07-29T10:02:12;19.70;99.90
33831;DHT22;20137;48.834;8.732;2023-07-29T10:04:40;19.60;99.90
33831;DHT22;20137;48.834;8.732;2023-07-29T10:07:06;19.60;99.90
33831;DHT22;20137;48.834;8.732;2023-07-29T10:09:33;19.60;99.90
33831;DHT22;20137;48.834;8.732;2023-07-29T10:11:59;19.80;99.90
33831;DHT22;20137;48.834;8.732;2023-07-29T10:14:27;20.10;99.90
33831;DHT22;20137;48.834;8.732;2023-07-29T10:16:53;20.40;99.90
33831;DHT22;20137;48.834;8.732;2023-07-29T10:19:20;20.70;99.90
33831;DHT22;20137;48.834;8.732;2023-07-29T10:21:48;20.60;99.90
33831;DHT22;20137;48.834;8.732;2023-07-29T10:24:19;20.60;99.90
33831;DHT22;20137;48.834;8.732;2023-07-29T10:26:49;20.50;99.90
33831;DHT22;20137;48.834;8.732;2023-07-29T10:29:19;20.60;99.90
33831;DHT22;20137;48.834;8.732;2023-07-29T10:31:47;20.60;99.90
33831;DHT22;20137;48.834;8.732;2023-07-29T10:34:13;20.60;99.90
33831;DHT22;20137;48.834;8.732;2023-07-29T10:36:40;21.00;99.90
33831;DHT22;20137;48.834;8.732;2023-07-29T10:39:07;21.40;99.90
33831;DHT22;20137;48.834;8.732;2023-07-29T10:42:08;22.00;99.90
33831;DHT22;20137;48.834;8.732;2023-07-29T10:49:42;22.20;99.90
33831;DHT22;20137;48.834;8.732;2023-07-29T10:52:08;21.80;99.90
33831;DHT22;20137;48.834;8.732;2023-07-29T10:54:44;21.30;99.90
33831;DHT22;20137;48.834;8.732;2023-07-29T10:57:34;21.10;99.90
33831;DHT22;20137;48.834;8.732;2023-07-29T11:00:00;21.20;99.90
33831;DHT22;20137;48.834;8.732;2023-07-29T11:04:56;20.90;99.90
33831;DHT22;20137;48.834;8.732;2023-07-29T11:07:23;20.90;99.90
33831;DHT22;20137;48.834;8.732;2023-07-29T11:10:00;21.20;99.90
33831;DHT22;20137;48.834;8.732;2023-07-29T11:12:46;21.30;99.90
33831;DHT22;20137;48.834;8.732;2023-07-29T11:15:16;21.50;99.90
33831;DHT22;20137;48.834;8.732;2023-07-29T11:18:04;21.80;99.90
33831;DHT22;20137;48.834;8.732;2023-07-29T11:20:32;22.20;99.90
33831;DHT22;20137;48.834;8.732;2023-07-29T11:23:03;22.20;99.90
33831;DHT22;20137;48.834;8.732;2023-07-29T11:25:31;22.50;99.90
33831;DHT22;20137;48.834;8.732;2023-07-29T11:28:00;22.60;99.90
33831;DHT22;20137;48.834;8.732;2023-07-29T11:30:26;22.60;99.90
33831;DHT22;20137;48.834;8.732;2023-07-29T11:32:53;22.60;99.90
33831;DHT22;20137;48.834;8.732;2023-07-29T11:35:20;22.80;99.90
33831;DHT22;20137;48.834;8.732;2023-07-29T11:37:50;22.90;99.90
33831;DHT22;20137;48.834;8.732;2023-07-29T11:40:18;22.80;99.90
33831;DHT22;20137;48.834;8.732;2023-07-29T11:42:45;22.80;99.90
33831;DHT22;20137;48.834;8.732;2023-07-29T11:45:12;22.70;99.90
33831;DHT22;20137;48.834;8.732;2023-07-29T11:47:38;22.70;99.90
33831;DHT22;20137;48.834;8.732;2023-07-29T11:50:09;22.80;99.90
33831;DHT22;20137;48.834;8.732;2023-07-29T11:52:36;22.90;99.90
33831;DHT22;20137;48.834;8.732;2023-07-29T11:55:03;23.00;99.90
33831;DHT22;20137;48.834;8.732;2023-07-29T11:57:37;23.10;99.90
33831;DHT22;20137;48.834;8.732;2023-07-29T12:00:08;23.10;99.90
33831;DHT22;20137;48.834;8.732;2023-07-29T12:02:40;23.00;99.90
33831;DHT22;20137;48.834;8.732;2023-07-29T12:05:08;23.00;99.90
33831;DHT22;20137;48.834;8.732;2023-07-29T12:07:35;22.80;99.90
33831;DHT22;20137;48.834;8.732;2023-07-29T12:10:02;22.80;99.90
33831;DHT22;20137;48.834;8.732;2023-07-29T12:12:29;22.80;99.90
33831;DHT22;20137;48.834;8.732;2023-07-29T12:14:55;22.70;99.90
33831;DHT22;20137;48.834;8.732;2023-07-29T12:17:20;22.70;99.90
33831;DHT22;20137;48.834;8.732;2023-07-29T12:19:46;22.80;99.90
33831;DHT22;20137;48.834;8.732;2023-07-29T12:22:11;22.70;99.90
33831;DHT22;20137;48.834;8.732;2023-07-29T12:24:39;22.60;99.90
33831;DHT22;20137;48.834;8.732;2023-07-29T12:27:05;22.70;99.90
33831;DHT22;20137;48.834;8.732;2023-07-29T12:29:40;22.70;99.90
33831;DHT22;20137;48.834;8.732;2023-07-29T12:32:06;22.70;99.90
33831;DHT22;20137;48.834;8.732;2023-07-29T12:34:32;22.80;99.90
33831;DHT22;20137;48.834;8.732;2023-07-29T12:36:58;22.90;99.90
33831;DHT22;20137;48.834;8.732;2023-07-29T12:39:26;23.10;99.90
33831;DHT22;20137;48.834;8.732;2023-07-29T12:41:54;23.30;99.90
33831;DHT22;20137;48.834;8.732;2023-07-29T12:44:20;23.30;99.90
33831;DHT22;20137;48.834;8.732;2023-07-29T12:46:46;23.30;99.90
33831;DHT22;20137;48.834;8.732;2023-07-29T12:49:12;23.40;99.90
33831;DHT22;20137;48.834;8.732;2023-07-29T12:51:40;23.80;99.90
33831;DHT22;20137;48.834;8.732;2023-07-29T12:54:06;23.80;99.90
33831;DHT22;20137;48.834;8.732;2023-07-29T12:56:32;24.10;99.90
33831;DHT22;20137;48.834;8.732;2023-07-29T12:58:59;23.90;99.90
33831;DHT22;20137;48.834;8.732;2023-07-29T13:01:25;23.60;99.90
33831;DHT22;20137;48.834;8.732;2023-07-29T13:03:51;23.80;99.90
33831;DHT22;20137;48.834;8.732;2023-07-29T13:06:17;24.00;99.90
33831;DHT22;20137;48.834;8.732;2023-07-29T13:08:43;23.90;99.90
33831;DHT22;20137;48.834;8.732;2023-07-29T13:11:09;23.70;99.90
33831;DHT22;20137;48.834;8.732;2023-07-29T13:13:35;23.60;99.90
33831;DHT22;20137;48.834;8.732;2023-07-29T13:16:01;23.40;99.90
33831;DHT22;20137;48.834;8.732;2023-07-29T13:18:27;23.40;99.90
33831;DHT22;20137;48.834;8.732;2023-07-29T13:20:53;23.50;99.90
33831;DHT22;20137;48.834;8.732;2023-07-29T13:23:19;23.50;99.90
33831;DHT22;20137;48.834;8.732;2023-07-29T13:25:45;23.50;99.90
33831;DHT22;20137;48.834;8.732;2023-07-29T13:28:11;23.70;99.90
33831;DHT22;20137;48.834;8.732;2023-07-29T13:30:40;23.90;99.90
33831;DHT22;20137;48.834;8.732;2023-07-29T13:33:07;24.00;99.90
33831;DHT22;20137;48.834;8.732;2023-07-29T13:35:33;24.00;99.90
33831;DHT22;20137;48.834;8.732;2023-07-29T13:37:59;24.10;99.90
33831;DHT22;20137;48.834;8.732;2023-07-29T13:40:25;24.10;99.90
33831;DHT22;20137;48.834;8.732;2023-07-29T13:42:52;24.20;99.90
33831;DHT22;20137;48.834;8.732;2023-07-29T13:45:18;24.20;99.90
33831;DHT22;20137;48.834;8.732;2023-07-29T13:47:44;24.10;99.90
33831;DHT22;20137;48.834;8.732;2023-07-29T13:50:10;24.30;99.90
33831;DHT22;20137;48.834;8.732;2023-07-29T13:52:36;24.00;99.90
33831;DHT22;20137;48.834;8.732;2023-07-29T13:55:05;23.80;99.90
33831;DHT22;20137;48.834;8.732;2023-07-29T13:57:31;23.70;99.90
33831;DHT22;20137;48.834;8.732;2023-07-29T13:59:58;23.80;99.90
33831;DHT22;20137;48.834;8.732;2023-07-29T14:02:24;23.90;99.90
33831;DHT22;20137;48.834;8.732;2023-07-29T14:04:52;23.50;99.90
33831;DHT22;20137;48.834;8.732;2023-07-29T14:07:18;23.30;99.90
33831;DHT22;20137;48.834;8.732;2023-07-29T14:09:43;23.40;99.90
33831;DHT22;20137;48.834;8.732;2023-07-29T14:12:09;23.70;99.90
33831;DHT22;20137;48.834;8.732;2023-07-29T14:14:43;23.50;99.90
33831;DHT22;20137;48.834;8.732;2023-07-29T14:17:09;23.70;99.90
33831;DHT22;20137;48.834;8.732;2023-07-29T14:19:38;23.80;99.90
33831;DHT22;20137;48.834;8.732;2023-07-29T14:22:04;24.00;99.90
33831;DHT22;20137;48.834;8.732;2023-07-29T14:24:29;23.90;99.90
33831;DHT22;20137;48.834;8.732;2023-07-29T14:26:55;23.70;99.90
33831;DHT22;20137;48.834;8.732;2023-07-29T14:29:21;23.80;99.90
33831;DHT22;20137;48.834;8.732;2023-07-29T14:31:46;23.80;99.90
33831;DHT22;20137;48.834;8.732;2023-07-29T14:34:12;23.80;99.90
33831;DHT22;20137;48.834;8.732;2023-07-29T14:36:38;23.80;99.90
33831;DHT22;20137;48.834;8.732;2023-07-29T14:39:05;23.70;99.90
33831;DHT22;20137;48.834;8.732;2023-07-29T14:41:31;23.80;99.90
33831;DHT22;20137;48.834;8.732;2023-07-29T14:43:57;24.00;99.90
33831;DHT22;20137;48.834;8.732;2023-07-29T14:46:23;24.10;99.90
33831;DHT22;20137;48.834;8.732;2023-07-29T14:48:48;24.10;99.90
33831;DHT22;20137;48.834;8.732;2023-07-29T14:51:14;24.20;99.90
33831;DHT22;20137;48.834;8.732;2023-07-29T14:53:40;24.30;99.90
33831;DHT22;20137;48.834;8.732;2023-07-29T14:56:06;24.50;99.90
33831;DHT22;20137;48.834;8.732;2023-07-29T14:58:32;24.50;99.90
33831;DHT22;20137;48.834;8.732;2023-07-29T15:00:58;24.60;99.90
33831;DHT22;20137;48.834;8.732;2023-07-29T15:03:24;24.80;99.90
33831;DHT22;20137;48.834;8.732;2023-07-29T15:05:50;25.00;99.90
33831;DHT22;20137;48.834;8.732;2023-07-29T15:08:16;25.10;99.90
33831;DHT22;20137;48.834;8.732;2023-07-29T15:10:47;25.30;99.90
33831;DHT22;20137;48.834;8.732;2023-07-29T15:13:13;25.50;99.90
33831;DHT22;20137;48.834;8.732;2023-07-29T15:15:43;25.80;99.90
33831;DHT22;20137;48.834;8.732;2023-07-29T15:18:09;25.60;99.90
33831;DHT22;20137;48.834;8.732;2023-07-29T15:20:35;25.20;99.90
33831;DHT22;20137;48.834;8.732;2023-07-29T15:23:01;25.30;99.90
33831;DHT22;20137;48.834;8.732;2023-07-29T15:25:27;25.10;99.90
33831;DHT22;20137;48.834;8.732;2023-07-29T15:27:52;25.00;99.90
33831;DHT22;20137;48.834;8.732;2023-07-29T15:30:18;25.10;99.90
33831;DHT22;20137;48.834;8.732;2023-07-29T15:32:44;25.10;99.90
33831;DHT22;20137;48.834;8.732;2023-07-29T15:35:11;25.30;99.90
33831;DHT22;20137;48.834;8.732;2023-07-29T15:37:37;25.40;99.90
33831;DHT22;20137;48.834;8.732;2023-07-29T15:40:03;25.30;99.90
33831;DHT22;20137;48.834;8.732;2023-07-29T15:42:29;25.50;99.90
33831;DHT22;20137;48.834;8.732;2023-07-29T15:44:55;25.80;99.90